Abu Simbel Airport


Codes: HEBL/ABS
Name: Abu Simbel Airport
City: Abu Simbel
Country: Egypt
Elevation: 616 ft.
Wikipedia:

Photos at Abu Simbel Airport


   Photos courtesy of SpottingLog. You can add your own sightings and photos by signing up for a free trial today.



SU-GED, 22-Aug-2023
© Mark Lovett


Weather at Abu Simbel Airport


Time (UTC)DescriptionTempratureWindCloud coverageVisibilityPressureHumidity
16-Jun-2024 03:00Few Clouds32°C4 mph, NW12%10000m1002hPa19%
16-Jun-2024 06:00Few Clouds33°C2 mph, N14%10000m1003hPa17%
16-Jun-2024 09:00Clear Sky39°C4 mph, NW6%10000m1004hPa13%
16-Jun-2024 12:00Scattered Clouds41°C2 mph, S25%10000m1002hPa14%
16-Jun-2024 15:00Scattered Clouds41°C4 mph, S35%10000m1001hPa14%
16-Jun-2024 18:00Few Clouds37°C9 mph, NW18%10000m1002hPa14%
16-Jun-2024 21:00Clear Sky34°C7 mph, N9%10000m1003hPa17%
17-Jun-2024 00:00Few Clouds32°C11 mph, NW18%10000m1003hPa18%
17-Jun-2024 03:00Few Clouds30°C9 mph, NW14%10000m1004hPa22%
17-Jun-2024 06:00Scattered Clouds34°C13 mph, N37%10000m1006hPa20%
17-Jun-2024 09:00Overcast Clouds38°C9 mph, NE100%10000m1005hPa15%
17-Jun-2024 12:00Broken Clouds40°C4 mph, NE81%10000m1002hPa14%
17-Jun-2024 15:00Scattered Clouds41°C7 mph, NE26%10000m1001hPa14%
17-Jun-2024 18:00Few Clouds37°C18 mph, NW17%10000m1003hPa16%
17-Jun-2024 21:00Clear Sky34°C18 mph, N7%10000m1004hPa21%
18-Jun-2024 00:00Clear Sky31°C11 mph, N9%10000m1004hPa25%
18-Jun-2024 03:00Clear Sky29°C9 mph, N0%10000m1005hPa24%
18-Jun-2024 06:00Clear Sky33°C11 mph, N0%10000m1007hPa17%
18-Jun-2024 09:00Scattered Clouds38°C11 mph, N29%10000m1006hPa15%
18-Jun-2024 12:00Few Clouds40°C9 mph, N18%10000m1003hPa14%
18-Jun-2024 15:00Clear Sky40°C11 mph, NW0%10000m1002hPa14%
18-Jun-2024 18:00Clear Sky35°C16 mph, NW0%10000m1004hPa17%
18-Jun-2024 21:00Clear Sky33°C18 mph, N0%10000m1005hPa20%
19-Jun-2024 00:00Clear Sky30°C11 mph, N0%10000m1004hPa25%
19-Jun-2024 03:00Clear Sky29°C13 mph, NW3%10000m1004hPa28%
19-Jun-2024 06:00Clear Sky33°C11 mph, N2%10000m1006hPa23%
19-Jun-2024 09:00Clear Sky37°C9 mph, N0%10000m1005hPa18%
19-Jun-2024 12:00Clear Sky39°C4 mph, NE0%10000m1003hPa17%
19-Jun-2024 15:00Clear Sky40°C4 mph, N0%10000m1002hPa16%
19-Jun-2024 18:00Clear Sky35°C13 mph, NW0%10000m1003hPa19%
19-Jun-2024 21:00Clear Sky33°C16 mph, NW0%10000m1004hPa22%
20-Jun-2024 00:00Clear Sky30°C9 mph, NE0%10000m1005hPa27%
20-Jun-2024 03:00Clear Sky30°C11 mph, NW0%10000m1005hPa25%
20-Jun-2024 06:00Clear Sky33°C11 mph, N0%10000m1007hPa23%
20-Jun-2024 09:00Clear Sky38°C11 mph, N4%10000m1006hPa17%
20-Jun-2024 12:00Clear Sky41°C11 mph, N2%10000m1003hPa14%
20-Jun-2024 15:00Clear Sky41°C11 mph, N0%10000m1003hPa14%
20-Jun-2024 18:00Clear Sky35°C13 mph, NW0%10000m1004hPa18%
20-Jun-2024 21:00Clear Sky33°C13 mph, NW0%10000m1005hPa20%
21-Jun-2024 00:00Clear Sky31°C9 mph, NE0%10000m1005hPa23%